Log in Register

Login to your account

Username *
Password *
Remember Me

Create an account

Fields marked with an asterisk (*) are required.
Name *
Username *
Password *
Verify password *
Email *
Verify email *

Please enter the email address associated with your User account. Your username will be emailed to the email address on file.

Nous contacter

 Téléphone : +33 (0)4 79 54 41 81

Coordonnées détaillées et accès : cliquez ici

 
LFLB °C
    Ferienhaus Ostsee
[source: ADDS]
METAR
LFLB 190430Z AUTO 01010KT 9999 BKN030 BKN036 BKN200 03/M01 Q1028 =
TAF
TAF LFLB 181700Z 1818/1918 34004KT CAVOK PROB30 TEMPO 1818/1824 3000 BR BECMG 1821/1824 02012KT BECMG 1903/1905 BKN030 TEMPO 1910/1918 02015G25KT =
SR / SS: 07:10 / 16:23 UTC (Lever/Coucher du soleil le 2020-01-19)
JSN Boot template designed by JoomlaShine.com